Time;durP1;ratioP1;P1;durP2;ratioP2;P2;SDS_P1;SDS_P2;PMS_P1;PMS_P2;Temp;Humidity;BMP_temperature;BMP_pressure;BME280_temperature;BME280_humidity;BME280_pressure;Samples;Min_cycle;Max_cycle;Signal;HPM_P1;HPM_P2
2022/08/19 00:01:55;;;;;;;;;;;;;;;20.24;100.00;98528.44;5074467;28;19924;-78
2022/08/19 00:04:35;;;;;;;;;;;;;;;19.51;100.00;98518.34;5074271;28;20372;-78
2022/08/19 00:07:03;;;;;;;;;;;;;;;19.56;100.00;98508.38;5106993;28;19924;-78
2022/08/19 00:09:31;;;;;;;;;;;;;;;19.74;100.00;98513.72;5074487;28;19932;-78
2022/08/19 00:11:58;;;;;;;;;;;;;;;20.10;100.00;98510.22;5074370;28;20049;-78
2022/08/19 00:14:26;;;;;;;;;;;;;;;19.77;100.00;98506.28;5074313;28;20372;-78
2022/08/19 00:16:54;;;;;;;;;;;;;;;19.31;100.00;98504.19;5074012;28;19936;-78
2022/08/19 00:19:22;;;;;;;;;;;;;;;19.39;100.00;98505.34;5074180;28;19951;-78
2022/08/19 00:21:49;;;;;;;;;;;;;;;19.30;100.00;98513.97;5074166;28;20368;-78
2022/08/19 00:24:16;;;;;;;;;;;;;;;19.09;100.00;98512.38;5073006;28;19928;-78
2022/08/19 00:26:45;;;;;;;;;;;;;;;18.82;100.00;98507.09;5073020;28;20263;-78
2022/08/19 00:29:14;;;;;;;;;;;;;;;19.19;100.00;98515.84;5073955;28;19924;-78
2022/08/19 00:31:42;;;;;;;;;;;;;;;19.44;100.00;98524.47;5073867;28;19929;-78
2022/08/19 00:34:11;;;;;;;;;;;;;;;19.25;100.00;98517.47;5073946;28;19932;-78
2022/08/19 00:36:39;;;;;;;;;;;;;;;19.34;100.00;98517.34;5106543;28;19924;-78
2022/08/19 00:39:07;;;;;;;;;;;;;;;19.29;100.00;98509.59;5072843;28;19962;-78
2022/08/19 00:41:34;;;;;;;;;;;;;;;19.34;100.00;98520.19;5073966;28;19925;-78
2022/08/19 00:44:01;;;;;;;;;;;;;;;19.04;100.00;98524.38;5089417;28;19933;-78
2022/08/19 00:46:28;;;;;;;;;;;;;;;19.03;100.00;98524.88;5072529;28;19928;-78
2022/08/19 00:48:57;;;;;;;;;;;;;;;19.01;100.00;98525.38;5073889;28;19924;-78
2022/08/19 00:51:27;;;;;;;;;;;;;;;18.95;100.00;98529.38;5072628;28;19932;-80
2022/08/19 00:53:56;;;;;;;;;;;;;;;18.88;100.00;98533.44;5056305;28;20015;-77
2022/08/19 00:56:26;;;;;;;;;;;;;;;18.70;100.00;98525.19;5072620;28;19924;-78
2022/08/19 00:58:54;;;;;;;;;;;;;;;18.77;100.00;98536.09;5106487;28;19967;-78
2022/08/19 01:01:22;;;;;;;;;;;;;;;18.91;100.00;98531.66;5072202;28;19935;-78
2022/08/19 01:04:07;;;;;;;;;;;;;;;18.69;100.00;98529.25;5101928;28;19931;-78
2022/08/19 01:06:37;;;;;;;;;;;;;;;19.02;100.00;98532.59;5072560;28;19932;-78
2022/08/19 01:09:04;;;;;;;;;;;;;;;19.13;100.00;98532.75;5073788;28;19924;-78
2022/08/19 01:11:34;;;;;;;;;;;;;;;18.75;100.00;98523.72;5106286;28;19928;-78
2022/08/19 01:14:01;;;;;;;;;;;;;;;18.64;100.00;98532.81;5073480;28;20035;-78
2022/08/19 01:16:29;;;;;;;;;;;;;;;18.70;100.00;98539.34;5072512;28;20023;-78
2022/08/19 01:18:57;;;;;;;;;;;;;;;18.75;100.00;98541.44;5073827;28;19971;-78
2022/08/19 01:21:32;;;;;;;;;;;;;;;18.95;100.00;98532.22;5072569;28;20020;-78
2022/08/19 01:24:00;;;;;;;;;;;;;;;19.28;100.00;98535.56;5074038;28;20358;-78
2022/08/19 01:26:27;;;;;;;;;;;;;;;19.65;100.00;98534.50;5073340;28;19924;-78
2022/08/19 01:28:55;;;;;;;;;;;;;;;19.11;100.00;98548.69;5073474;28;19931;-79
2022/08/19 01:31:24;;;;;;;;;;;;;;;19.35;100.00;98550.09;5073511;28;20497;-78
2022/08/19 01:33:52;;;;;;;;;;;;;;;19.33;100.00;98554.69;5073530;28;19932;-78
2022/08/19 01:36:27;;;;;;;;;;;;;;;19.75;100.00;98557.03;5073810;28;20414;-79
2022/08/19 01:38:55;;;;;;;;;;;;;;;19.86;100.00;98548.66;5073484;28;19924;-79
2022/08/19 01:41:23;;;;;;;;;;;;;;;19.88;100.00;98554.59;5072252;28;19929;-79
2022/08/19 01:43:51;;;;;;;;;;;;;;;19.64;100.00;98549.94;5071891;28;19954;-78
2022/08/19 01:46:19;;;;;;;;;;;;;;;19.25;100.00;98542.97;5105937;28;19931;-78
2022/08/19 01:48:49;;;;;;;;;;;;;;;19.16;100.00;98548.75;5073508;28;19925;-78
2022/08/19 01:51:16;;;;;;;;;;;;;;;19.08;100.00;98547.63;5072440;28;20011;-78
2022/08/19 01:53:46;;;;;;;;;;;;;;;19.36;100.00;98565.81;5075888;28;19952;-78
2022/08/19 01:56:14;;;;;;;;;;;;;;;19.75;100.00;98565.53;5077123;28;19924;-79
2022/08/19 01:58:46;;;;;;;;;;;;;;;19.77;100.00;98560.13;5075820;28;19925;-79
2022/08/19 02:01:13;;;;;;;;;;;;;;;19.15;100.00;98564.19;5109807;28;19924;-79
2022/08/19 02:03:40;;;;;;;;;;;;;;;19.47;100.00;98571.63;5077035;28;19942;-78
2022/08/19 02:06:07;;;;;;;;;;;;;;;19.57;100.00;98575.88;5076741;28;19931;-79
2022/08/19 02:08:35;;;;;;;;;;;;;;;19.57;100.00;98566.59;5076783;28;19932;-79
2022/08/19 02:11:03;;;;;;;;;;;;;;;19.70;100.00;98559.28;5076832;28;19924;-79
2022/08/19 02:13:31;;;;;;;;;;;;;;;19.60;100.00;98560.72;5075537;28;19924;-79
2022/08/19 02:15:58;;;;;;;;;;;;;;;19.50;100.00;98579.13;5076772;28;19964;-79
2022/08/19 02:18:26;;;;;;;;;;;;;;;19.53;100.00;98577.38;5076733;28;19925;-79
2022/08/19 02:20:53;;;;;;;;;;;;;;;19.47;100.00;98568.78;5075508;28;19925;-79
2022/08/19 02:23:20;;;;;;;;;;;;;;;19.37;100.00;98580.75;5075409;28;20292;-79
2022/08/19 02:25:47;;;;;;;;;;;;;;;19.58;100.00;98580.25;5076505;28;20288;-79
2022/08/19 02:28:15;;;;;;;;;;;;;;;19.71;100.00;98591.25;5076141;28;19954;-79
2022/08/19 02:30:44;;;;;;;;;;;;;;;19.64;100.00;98592.44;5076413;28;20387;-79
2022/08/19 02:33:12;;;;;;;;;;;;;;;19.57;100.00;98595.72;5076486;28;19928;-79
2022/08/19 02:35:43;;;;;;;;;;;;;;;19.66;100.00;98592.72;5092110;28;19962;-79
2022/08/19 02:38:25;;;;;;;;;;;;;;;19.71;100.00;98599.75;5076230;28;19925;-79
2022/08/19 02:40:54;;;;;;;;;;;;;;;19.73;100.00;98593.59;5076250;28;19929;-79
2022/08/19 02:43:22;;;;;;;;;;;;;;;19.85;100.00;98592.44;5076004;28;19925;-79
2022/08/19 02:45:51;;;;;;;;;;;;;;;19.87;100.00;98592.72;5076124;28;19924;-79
2022/08/19 02:48:19;;;;;;;;;;;;;;;19.97;100.00;98594.13;5074990;28;20038;-79
2022/08/19 02:50:51;;;;;;;;;;;;;;;19.95;100.00;98596.69;5075976;28;19928;-79
2022/08/19 02:53:18;;;;;;;;;;;;;;;19.90;100.00;98601.03;5075541;28;19924;-79
2022/08/19 02:55:46;;;;;;;;;;;;;;;19.85;100.00;98593.22;5075227;28;19924;-79
2022/08/19 02:58:14;;;;;;;;;;;;;;;19.89;100.00;98598.69;5075348;28;19924;-80
2022/08/19 03:00:43;;;;;;;;;;;;;;;19.92;100.00;98592.78;5074379;28;19928;-79
2022/08/19 03:03:10;;;;;;;;;;;;;;;19.92;100.00;98597.69;5075228;28;19956;-79
2022/08/19 03:05:37;;;;;;;;;;;;;;;19.88;100.00;98591.44;5075114;28;19925;-79
2022/08/19 03:08:05;;;;;;;;;;;;;;;19.53;100.00;98597.19;5075539;28;19928;-79
2022/08/19 03:10:32;;;;;;;;;;;;;;;19.45;100.00;98602.50;5075590;28;19929;-79
2022/08/19 03:13:00;;;;;;;;;;;;;;;19.29;100.00;98597.41;5074338;28;20360;-79
2022/08/19 03:15:28;;;;;;;;;;;;;;;19.33;100.00;98614.16;5075631;28;20011;-79
2022/08/19 03:17:55;;;;;;;;;;;;;;;19.37;100.00;98615.50;5075703;28;19932;-79
2022/08/19 03:20:22;;;;;;;;;;;;;;;19.20;100.00;98620.16;5074356;28;20329;-79
2022/08/19 03:22:49;;;;;;;;;;;;;;;19.04;100.00;98614.19;5074213;28;19982;-79
2022/08/19 03:25:16;;;;;;;;;;;;;;;18.39;100.00;98609.78;5073262;28;19928;-78
2022/08/19 03:27:45;;;;;;;;;;;;;;;18.59;100.00;98612.72;5075169;28;19931;-78
2022/08/19 03:30:12;;;;;;;;;;;;;;;18.63;100.00;98607.63;5075293;28;19924;-78
2022/08/19 03:32:39;;;;;;;;;;;;;;;18.69;100.00;98614.16;5073997;28;20382;-78
2022/08/19 03:35:07;;;;;;;;;;;;;;;18.34;100.00;98624.56;5073753;28;20459;-78
2022/08/19 03:37:34;;;;;;;;;;;;;;;18.42;100.00;98630.66;5075105;28;19970;-79
2022/08/19 03:40:03;;;;;;;;;;;;;;;18.43;100.00;98638.66;5074708;28;19924;-79
2022/08/19 03:42:30;;;;;;;;;;;;;;;18.67;100.00;98630.84;5074070;28;20276;-79
2022/08/19 03:44:59;;;;;;;;;;;;;;;18.24;100.00;98631.56;5074944;28;19928;-79
2022/08/19 03:47:26;;;;;;;;;;;;;;;18.61;100.00;98632.03;5107445;28;19924;-78
2022/08/19 03:49:54;;;;;;;;;;;;;;;18.54;100.00;98627.53;5073694;28;19931;-79
2022/08/19 03:52:21;;;;;;;;;;;;;;;18.07;100.00;98621.22;5073602;28;20005;-78
2022/08/19 03:54:48;;;;;;;;;;;;;;;18.66;100.00;98634.19;5074439;28;19925;-79
2022/08/19 03:57:18;;;;;;;;;;;;;;;18.68;100.00;98632.41;5074877;28;20003;-79
2022/08/19 03:59:45;;;;;;;;;;;;;;;19.05;100.00;98639.19;5074672;28;20015;-79
2022/08/19 04:02:13;;;;;;;;;;;;;;;18.79;100.00;98626.94;5074637;28;19936;-79
2022/08/19 04:04:42;;;;;;;;;;;;;;;18.97;100.00;98626.72;5074409;28;20291;-79
2022/08/19 04:07:11;;;;;;;;;;;;;;;19.03;100.00;98635.31;5074501;28;19924;-79
2022/08/19 04:09:38;;;;;;;;;;;;;;;18.45;100.00;98629.69;5074144;28;20283;-79
2022/08/19 04:12:06;;;;;;;;;;;;;;;18.92;100.00;98635.91;5073285;28;19924;-79
2022/08/19 04:14:34;;;;;;;;;;;;;;;19.09;100.00;98636.97;5073093;28;19936;-79
2022/08/19 04:17:04;;;;;;;;;;;;;;;19.13;100.00;98633.94;5073816;28;19925;-79
2022/08/19 04:19:32;;;;;;;;;;;;;;;18.96;100.00;98642.13;5074232;28;19931;-79
2022/08/19 04:22:00;;;;;;;;;;;;;;;18.99;100.00;98643.97;5074220;28;19924;-79
2022/08/19 04:24:27;;;;;;;;;;;;;;;18.41;100.00;98646.06;5073845;28;19925;-79
2022/08/19 04:26:54;;;;;;;;;;;;;;;18.01;100.00;98649.34;5072982;28;19933;-79
2022/08/19 04:29:24;;;;;;;;;;;;;;;18.22;100.00;98653.88;5074122;28;20287;-79
2022/08/19 04:31:53;;;;;;;;;;;;;;;18.47;100.00;98659.03;5106534;28;19925;-79
2022/08/19 04:34:22;;;;;;;;;;;;;;;18.31;100.00;98665.13;5073905;28;19924;-79
2022/08/19 04:36:50;;;;;;;;;;;;;;;18.56;100.00;98667.44;5072830;28;19925;-79
2022/08/19 04:39:20;;;;;;;;;;;;;;;18.77;100.00;98674.75;5073800;28;20295;-79
2022/08/19 04:44:35;;;;;;;;;;;;;;;18.98;100.00;98667.91;5106394;28;20007;-79
2022/08/19 04:47:05;;;;;;;;;;;;;;;18.88;100.00;98655.16;5073845;28;19931;-79
2022/08/19 04:49:32;;;;;;;;;;;;;;;18.66;100.00;98666.06;5073954;28;20583;-79
2022/08/19 04:51:58;;;;;;;;;;;;;;;18.59;100.00;98668.50;5073773;28;20272;-79
2022/08/19 04:54:26;;;;;;;;;;;;;;;18.29;100.00;98666.88;5072638;28;20023;-79
2022/08/19 04:56:53;;;;;;;;;;;;;;;17.70;100.00;98678.03;5073927;28;20023;-79
2022/08/19 04:59:20;;;;;;;;;;;;;;;18.00;100.00;98684.56;5073850;28;20386;-79
2022/08/19 05:01:49;;;;;;;;;;;;;;;17.58;100.00;98681.84;5073807;28;20360;-79
2022/08/19 05:04:20;;;;;;;;;;;;;;;17.33;100.00;98684.28;5073753;28;19925;-79
2022/08/19 05:06:48;;;;;;;;;;;;;;;17.51;100.00;98692.69;5106006;28;19924;-79
2022/08/19 05:09:16;;;;;;;;;;;;;;;17.68;100.00;98702.34;5073590;28;19935;-79
2022/08/19 05:11:43;;;;;;;;;;;;;;;18.05;100.00;98714.19;5073601;28;20017;-79
2022/08/19 05:14:12;;;;;;;;;;;;;;;18.22;100.00;98707.59;5088024;28;20015;-79
2022/08/19 05:16:39;;;;;;;;;;;;;;;18.29;100.00;98701.59;5072391;28;19947;-79
2022/08/19 05:24:38;;;;;;;;;;;;;;;18.37;100.00;98711.31;5073540;28;19924;-80
2022/08/19 05:27:13;;;;;;;;;;;;;;;18.24;100.00;98710.75;5073774;28;20031;-80
2022/08/19 05:29:40;;;;;;;;;;;;;;;18.26;100.00;98713.09;5077679;28;19931;-79
2022/08/19 05:32:08;;;;;;;;;;;;;;;18.19;100.00;98717.06;5077449;28;20371;-80
2022/08/19 05:34:37;;;;;;;;;;;;;;;18.44;100.00;98722.25;5075993;28;19925;-82
2022/08/19 05:37:07;;;;;;;;;;;;;;;18.60;100.00;98721.00;5042389;28;19932;-80
2022/08/19 05:39:35;;;;;;;;;;;;;;;18.76;100.00;98718.50;5077744;28;20399;-80
2022/08/19 05:42:05;;;;;;;;;;;;;;;18.66;100.00;98725.50;5077561;28;19924;-80
2022/08/19 05:44:36;;;;;;;;;;;;;;;18.77;100.00;98722.88;5059406;28;20276;-80
2022/08/19 05:47:04;;;;;;;;;;;;;;;17.58;100.00;98743.22;5109779;28;19936;-80
2022/08/19 05:49:32;;;;;;;;;;;;;;;17.98;100.00;98738.75;5076945;28;19931;-79
2022/08/19 05:52:01;;;;;;;;;;;;;;;18.30;100.00;98734.25;5077116;28;19956;-80
2022/08/19 05:54:29;;;;;;;;;;;;;;;18.09;100.00;98737.41;5059721;28;20423;-80
2022/08/19 05:56:57;;;;;;;;;;;;;;;18.43;100.00;98751.81;5076840;28;20480;-80
2022/08/19 05:59:25;;;;;;;;;;;;;;;18.75;100.00;98753.69;5075716;28;19931;-80
2022/08/19 06:01:55;;;;;;;;;;;;;;;18.48;100.00;98748.28;5076457;28;19924;-80
2022/08/19 06:04:23;;;;;;;;;;;;;;;18.55;100.00;98736.63;5076802;28;19928;-80
2022/08/19 06:06:51;;;;;;;;;;;;;;;18.65;100.00;98735.25;5075024;28;20347;-79
2022/08/19 06:09:19;;;;;;;;;;;;;;;18.71;100.00;98733.31;5075592;28;19931;-80
2022/08/19 06:11:49;;;;;;;;;;;;;;;18.40;100.00;98735.00;5076707;28;19930;-79
2022/08/19 06:14:18;;;;;;;;;;;;;;;18.67;100.00;98720.63;5076712;28;19924;-79
2022/08/19 06:16:45;;;;;;;;;;;;;;;18.32;100.00;98723.25;5075591;28;19931;-80
2022/08/19 06:19:15;;;;;;;;;;;;;;;18.26;100.00;98725.19;5076562;28;19932;-80
2022/08/19 06:21:43;;;;;;;;;;;;;;;18.36;100.00;98726.66;5076272;28;19925;-80
2022/08/19 06:24:12;;;;;;;;;;;;;;;18.53;100.00;98727.03;5076462;28;19924;-84
2022/08/19 06:26:40;;;;;;;;;;;;;;;18.44;100.00;98730.72;5075814;28;19924;-78
2022/08/19 06:29:08;;;;;;;;;;;;;;;18.38;100.00;98732.66;5058876;28;19925;-78
2022/08/19 06:31:36;;;;;;;;;;;;;;;18.90;100.00;98729.00;5076300;28;19946;-78
2022/08/19 06:34:04;;;;;;;;;;;;;;;18.97;100.00;98728.66;5074873;28;19925;-78
2022/08/19 06:36:33;;;;;;;;;;;;;;;18.72;100.00;98734.84;5073935;28;19924;-78
2022/08/19 06:39:02;;;;;;;;;;;;;;;18.81;100.00;98737.59;5040200;28;20302;-78
2022/08/19 06:41:30;;;;;;;;;;;;;;;18.50;100.00;98734.44;5073787;28;19924;-78
2022/08/19 06:43:57;;;;;;;;;;;;;;;18.66;100.00;98736.03;5075000;28;19924;-78
2022/08/19 06:46:26;;;;;;;;;;;;;;;18.61;100.00;98737.50;5074864;28;20299;-77
2022/08/19 06:48:54;;;;;;;;;;;;;;;18.60;100.00;98738.75;5074763;28;19931;-77
2022/08/19 06:51:22;;;;;;;;;;;;;;;18.86;100.00;98745.41;5074919;28;19924;-77
2022/08/19 06:53:50;;;;;;;;;;;;;;;19.22;100.00;98753.53;5073775;28;19962;-77
2022/08/19 06:56:24;;;;;;;;;;;;;;;19.41;100.00;98748.47;5069259;28;19935;-78
2022/08/19 06:58:52;;;;;;;;;;;;;;;19.77;100.00;98744.38;5067602;28;19925;-76
2022/08/19 07:01:20;;;;;;;;;;;;;;;19.93;100.00;98747.47;5070754;28;20011;-77
2022/08/19 07:03:47;;;;;;;;;;;;;;;20.15;100.00;98729.97;5069206;28;20512;-77
2022/08/19 07:06:17;;;;;;;;;;;;;;;20.54;100.00;98736.94;5069644;28;19929;-76
2022/08/19 07:08:58;;;;;;;;;;;;;;;20.70;100.00;98736.34;5068623;28;19948;-76
2022/08/19 07:11:26;;;;;;;;;;;;;;;21.59;100.00;98721.66;5069427;28;19928;-76
2022/08/19 07:13:55;;;;;;;;;;;;;;;21.94;100.00;98724.25;5068956;28;19935;-76
2022/08/19 07:16:22;;;;;;;;;;;;;;;21.85;100.00;98728.09;5069668;28;19983;-78
2022/08/19 07:18:50;;;;;;;;;;;;;;;22.11;100.00;98725.91;5070192;28;19925;-77
2022/08/19 07:21:20;;;;;;;;;;;;;;;22.53;100.00;98723.00;5070825;28;19924;-77
2022/08/19 07:23:48;;;;;;;;;;;;;;;22.93;100.00;98714.03;5068780;28;20035;-77
2022/08/19 07:26:19;;;;;;;;;;;;;;;23.96;100.00;98713.00;5068883;28;20299;-78
2022/08/19 07:28:47;;;;;;;;;;;;;;;23.97;100.00;98714.56;5071030;28;19967;-78
2022/08/19 07:31:17;;;;;;;;;;;;;;;23.53;100.00;98718.25;5070284;28;19932;-78
2022/08/19 07:33:47;;;;;;;;;;;;;;;23.34;100.00;98707.88;5069975;28;19997;-78
2022/08/19 07:36:16;;;;;;;;;;;;;;;24.31;100.00;98719.63;5003100;28;1870438;-80
2022/08/19 07:38:44;;;;;;;;;;;;;;;23.85;100.00;98724.41;5071129;28;19963;-81
2022/08/19 07:41:12;;;;;;;;;;;;;;;22.72;100.00;98726.16;5053845;28;20501;-77
2022/08/19 07:43:40;;;;;;;;;;;;;;;22.43;100.00;98733.03;5070640;28;19993;-76
2022/08/19 07:46:07;;;;;;;;;;;;;;;22.36;100.00;98732.72;5070022;28;19932;-77
2022/08/19 07:48:40;;;;;;;;;;;;;;;22.57;100.00;98743.47;5069508;28;20002;-78
2022/08/19 07:51:08;;;;;;;;;;;;;;;22.20;100.00;98745.63;5070205;28;19925;-80
2022/08/19 07:53:36;;;;;;;;;;;;;;;21.36;100.00;98754.03;5069727;28;19928;-79
2022/08/19 07:56:05;;;;;;;;;;;;;;;21.47;100.00;98748.47;5071420;28;19930;-78
2022/08/19 07:58:34;;;;;;;;;;;;;;;22.45;100.00;98747.53;5070952;28;20019;-79
2022/08/19 08:01:02;;;;;;;;;;;;;;;23.95;100.00;98742.81;5069494;28;19974;-78
2022/08/19 08:09:19;;;;;;;;;;;;;;;24.15;100.00;98754.72;5070600;28;20371;-79
2022/08/19 08:11:56;;;;;;;;;;;;;;;25.08;100.00;98743.41;5071350;28;19931;-79
2022/08/19 08:14:30;;;;;;;;;;;;;;;24.31;100.00;98748.19;5070835;28;19928;-79
2022/08/19 08:16:58;;;;;;;;;;;;;;;24.84;100.00;98746.94;5069854;28;20380;-75
2022/08/19 08:19:26;;;;;;;;;;;;;;;24.32;100.00;98746.91;5070314;28;20015;-77
2022/08/19 08:21:56;;;;;;;;;;;;;;;24.47;100.00;98752.28;5071058;28;19924;-76
2022/08/19 08:24:24;;;;;;;;;;;;;;;23.94;100.00;98755.53;5070207;28;19967;-77
2022/08/19 08:26:51;;;;;;;;;;;;;;;23.92;100.00;98756.03;5070094;28;19975;-78
2022/08/19 08:29:19;;;;;;;;;;;;;;;24.03;100.00;98753.22;5069457;28;19925;-77
2022/08/19 08:31:46;;;;;;;;;;;;;;;24.21;100.00;98752.63;5052513;28;19943;-78
2022/08/19 08:34:14;;;;;;;;;;;;;;;23.84;100.00;98745.69;5070269;28;19931;-76
2022/08/19 08:36:44;;;;;;;;;;;;;;;24.06;100.00;98751.38;5070788;28;19925;-75
2022/08/19 08:39:13;;;;;;;;;;;;;;;24.94;100.00;98751.03;5052249;28;19929;-75
2022/08/19 08:41:47;;;;;;;;;;;;;;;23.93;100.00;98759.69;5069982;28;19967;-76
2022/08/19 08:44:23;;;;;;;;;;;;;;;22.91;100.00;98750.81;5069633;28;20039;-77
2022/08/19 08:46:55;;;;;;;;;;;;;;;22.70;100.00;98752.28;5051160;28;20710;-77
2022/08/19 08:49:25;;;;;;;;;;;;;;;23.29;100.00;98757.09;5069137;28;19936;-78
2022/08/19 08:52:00;;;;;;;;;;;;;;;22.63;100.00;98761.34;5067764;28;19928;-78
2022/08/19 08:54:33;;;;;;;;;;;;;;;21.22;100.00;98766.31;5067907;28;20676;-78
2022/08/19 08:57:00;;;;;;;;;;;;;;;20.24;100.00;98778.06;5068741;28;20014;-81
2022/08/19 08:59:27;;;;;;;;;;;;;;;20.34;100.00;98788.00;5072781;28;19924;-76
2022/08/19 09:01:54;;;;;;;;;;;;;;;20.54;100.00;98782.34;5071697;28;20015;-75
2022/08/19 09:04:22;;;;;;;;;;;;;;;21.02;100.00;98789.13;5072643;28;19932;-76
2022/08/19 09:07:09;;;;;;;;;;;;;;;21.72;100.00;98776.03;5072455;28;20452;-76
2022/08/19 09:09:40;;;;;;;;;;;;;;;23.26;100.00;98776.03;5066023;28;19932;-76
2022/08/19 09:12:10;;;;;;;;;;;;;;;23.80;100.00;98773.69;5072339;28;19935;-76
2022/08/19 09:14:41;;;;;;;;;;;;;;;23.93;100.00;98771.09;5072612;28;19970;-76
2022/08/19 09:17:17;;;;;;;;;;;;;;;22.72;100.00;98768.88;5071567;28;20360;-76
2022/08/19 09:19:50;;;;;;;;;;;;;;;22.06;100.00;98777.84;5072851;28;19931;-76
2022/08/19 09:22:21;;;;;;;;;;;;;;;22.08;100.00;98780.97;5072388;28;19925;-76
2022/08/19 09:24:49;;;;;;;;;;;;;;;22.69;100.00;98773.53;5072897;28;19964;-76
2022/08/19 09:27:16;;;;;;;;;;;;;;;22.92;100.00;98771.53;5071787;28;20290;-76
2022/08/19 09:29:44;;;;;;;;;;;;;;;22.91;100.00;98770.75;5072266;28;20001;-77
2022/08/19 09:32:11;;;;;;;;;;;;;;;23.05;100.00;98772.59;5072504;28;19932;-76
2022/08/19 09:34:38;;;;;;;;;;;;;;;21.73;100.00;98771.94;5071305;28;19928;-76
2022/08/19 09:37:06;;;;;;;;;;;;;;;21.38;100.00;98785.59;5072739;28;20007;-76
2022/08/19 09:39:33;;;;;;;;;;;;;;;21.70;100.00;98789.19;5071323;28;20024;-76
2022/08/19 09:42:00;;;;;;;;;;;;;;;21.71;100.00;98777.31;5072354;28;19924;-76
2022/08/19 09:44:27;;;;;;;;;;;;;;;21.86;100.00;98786.50;5071033;28;19929;-76
2022/08/19 09:46:55;;;;;;;;;;;;;;;21.97;100.00;98775.22;5072574;28;19925;-76
2022/08/19 09:49:23;;;;;;;;;;;;;;;22.86;100.00;98777.22;5071102;28;20010;-76
2022/08/19 09:51:51;;;;;;;;;;;;;;;22.75;100.00;98774.31;5072467;28;19931;-76
2022/08/19 09:54:18;;;;;;;;;;;;;;;22.84;100.00;98768.41;5072238;28;20015;-76
2022/08/19 09:56:45;;;;;;;;;;;;;;;22.70;100.00;98777.16;5072129;28;19925;-77
2022/08/19 09:59:13;;;;;;;;;;;;;;;22.47;100.00;98779.13;5072038;28;20381;-77
2022/08/19 10:01:40;;;;;;;;;;;;;;;22.49;100.00;98776.50;5071500;28;20383;-76
2022/08/19 10:04:08;;;;;;;;;;;;;;;22.46;100.00;98771.09;5072317;28;20367;-76
2022/08/19 10:06:37;;;;;;;;;;;;;;;21.91;100.00;98782.94;5070831;28;19968;-76
2022/08/19 10:09:06;;;;;;;;;;;;;;;21.87;100.00;98782.38;5072241;28;19924;-76
2022/08/19 10:11:34;;;;;;;;;;;;;;;22.08;100.00;98772.44;5087729;28;20395;-76
2022/08/19 10:14:05;;;;;;;;;;;;;;;22.12;100.00;98770.13;5073678;28;19958;-76
2022/08/19 10:16:32;;;;;;;;;;;;;;;22.21;100.00;98777.69;5075905;28;20009;-77
2022/08/19 10:19:00;;;;;;;;;;;;;;;22.62;100.00;98788.28;5075544;28;20311;-76
2022/08/19 10:21:29;;;;;;;;;;;;;;;22.06;100.00;98777.84;5075727;28;19928;-77
2022/08/19 10:23:58;;;;;;;;;;;;;;;22.21;100.00;98778.47;5075654;28;19967;-76
2022/08/19 10:26:27;;;;;;;;;;;;;;;22.17;100.00;98780.78;5075265;28;19967;-77
2022/08/19 10:28:55;;;;;;;;;;;;;;;21.77;100.00;98783.88;5075673;28;19928;-76
2022/08/19 10:31:29;;;;;;;;;;;;;;;22.19;100.00;98786.72;5075534;28;19929;-76
2022/08/19 10:34:00;;;;;;;;;;;;;;;22.43;100.00;98778.56;5075426;28;19935;-76
2022/08/19 10:36:28;;;;;;;;;;;;;;;22.81;100.00;98777.97;5074022;28;19935;-76
2022/08/19 10:38:58;;;;;;;;;;;;;;;22.43;100.00;98777.81;5074075;28;19994;-76
2022/08/19 10:41:26;;;;;;;;;;;;;;;22.77;100.00;98770.97;5073627;28;19958;-76
2022/08/19 10:43:55;;;;;;;;;;;;;;;22.93;100.00;98765.31;5074175;28;19932;-77
2022/08/19 10:46:23;;;;;;;;;;;;;;;22.52;100.00;98764.13;5074556;28;20334;-76
2022/08/19 10:48:51;;;;;;;;;;;;;;;22.44;100.00;98767.97;5075214;28;20358;-76
2022/08/19 10:54:05;;;;;;;;;;;;;;;22.48;100.00;98769.28;5075124;28;19924;-76
2022/08/19 10:56:51;;;;;;;;;;;;;;;22.31;100.00;98776.19;5073648;28;19924;-77
2022/08/19 10:59:19;;;;;;;;;;;;;;;22.79;100.00;98771.25;5075002;28;20290;-77
2022/08/19 11:01:47;;;;;;;;;;;;;;;22.86;100.00;98760.13;5075010;28;20364;-77
2022/08/19 11:04:17;;;;;;;;;;;;;;;23.07;100.00;98747.22;5075175;28;19960;-76
2022/08/19 11:06:47;;;;;;;;;;;;;;;23.40;100.00;98762.81;5074957;28;19928;-77
2022/08/19 11:09:18;;;;;;;;;;;;;;;23.41;100.00;98765.16;5073434;28;20291;-77
2022/08/19 11:11:47;;;;;;;;;;;;;;;23.81;100.00;98746.75;5074753;28;19924;-77
2022/08/19 11:14:15;;;;;;;;;;;;;;;23.69;100.00;98756.59;5073356;28;19925;-77
2022/08/19 11:16:42;;;;;;;;;;;;;;;23.07;100.00;98752.91;5074649;28;19956;-77
2022/08/19 11:19:12;;;;;;;;;;;;;;;23.19;100.00;98758.63;5073361;28;19974;-76
2022/08/19 11:21:42;;;;;;;;;;;;;;;22.96;100.00;98752.88;5074668;28;19924;-77
2022/08/19 11:24:11;;;;;;;;;;;;;;;23.55;100.00;98757.63;5073970;28;19930;-77
2022/08/19 11:26:39;;;;;;;;;;;;;;;23.39;100.00;98764.09;5072273;28;19947;-77
2022/08/19 11:29:11;;;;;;;;;;;;;;;23.09;100.00;98760.94;5074926;28;19924;-76
2022/08/19 11:31:41;;;;;;;;;;;;;;;23.68;100.00;98767.22;5074299;28;19931;-77
2022/08/19 11:34:09;;;;;;;;;;;;;;;23.55;100.00;98760.50;5074374;28;19978;-77
2022/08/19 11:36:38;;;;;;;;;;;;;;;23.97;100.00;98768.78;5072985;28;20003;-77
2022/08/19 11:39:06;;;;;;;;;;;;;;;23.75;100.00;98765.94;5073955;28;19947;-77
2022/08/19 11:41:34;;;;;;;;;;;;;;;23.69;100.00;98776.56;5074213;28;19932;-77
2022/08/19 11:44:02;;;;;;;;;;;;;;;23.82;100.00;98771.09;5073024;28;20090;-77
2022/08/19 11:46:33;;;;;;;;;;;;;;;23.43;100.00;98778.91;5074062;28;19931;-77
2022/08/19 11:49:01;;;;;;;;;;;;;;;23.62;100.00;98763.59;5073888;28;19924;-77
2022/08/19 11:51:29;;;;;;;;;;;;;;;23.50;100.00;98772.66;5073790;28;19928;-77
2022/08/19 11:53:57;;;;;;;;;;;;;;;23.76;100.00;98781.75;5073698;28;20393;-77
2022/08/19 11:56:25;;;;;;;;;;;;;;;23.77;100.00;98771.88;5072381;28;19932;-77
2022/08/19 11:58:53;;;;;;;;;;;;;;;24.14;100.00;98781.69;5072527;28;19924;-76
2022/08/19 12:01:22;;;;;;;;;;;;;;;24.36;100.00;98778.81;5073728;28;19924;-77
2022/08/19 12:03:51;;;;;;;;;;;;;;;24.54;100.00;98768.88;5073868;28;19932;-77
2022/08/19 12:06:23;;;;;;;;;;;;;;;23.97;100.00;98780.97;5073739;28;20299;-79
2022/08/19 12:08:51;;;;;;;;;;;;;;;23.24;100.00;98789.19;5072154;28;19925;-79
2022/08/19 12:11:18;;;;;;;;;;;;;;;22.87;100.00;98790.16;5073562;28;20304;-79
2022/08/19 12:13:46;;;;;;;;;;;;;;;23.46;100.00;98789.25;5073604;28;20379;-79
2022/08/19 12:16:22;;;;;;;;;;;;;;;23.60;100.00;98779.69;5072404;28;19924;-79
2022/08/19 12:18:50;;;;;;;;;;;;;;;23.99;100.00;98784.06;5072278;28;20023;-79
2022/08/19 12:21:20;;;;;;;;;;;;;;;23.48;100.00;98775.28;5073335;28;19930;-79
2022/08/19 12:23:49;;;;;;;;;;;;;;;23.76;100.00;98773.19;5072092;28;19929;-79
2022/08/19 12:26:18;;;;;;;;;;;;;;;23.70;100.00;98775.25;5073613;28;19964;-79
2022/08/19 12:28:47;;;;;;;;;;;;;;;22.98;100.00;98789.41;5073343;28;19936;-79
2022/08/19 12:31:15;;;;;;;;;;;;;;;23.71;100.00;98773.97;5073524;28;19954;-79
2022/08/19 12:33:42;;;;;;;;;;;;;;;24.07;100.00;98782.25;5073227;28;20391;-79
2022/08/19 12:36:09;;;;;;;;;;;;;;;23.89;100.00;98781.97;5068179;28;20372;-79
2022/08/19 12:38:37;;;;;;;;;;;;;;;23.80;100.00;98785.09;5073121;28;20021;-79
2022/08/19 12:41:06;;;;;;;;;;;;;;;23.93;100.00;98776.81;5073130;28;19925;-79
2022/08/19 12:43:34;;;;;;;;;;;;;;;24.03;100.00;98786.66;5073182;28;19925;-79
2022/08/19 12:46:03;;;;;;;;;;;;;;;24.37;100.00;98782.44;5071807;28;19924;-79
2022/08/19 12:48:31;;;;;;;;;;;;;;;23.85;100.00;98778.63;5073038;28;20084;-78
2022/08/19 12:51:01;;;;;;;;;;;;;;;24.26;100.00;98768.19;5072712;28;19925;-79
2022/08/19 12:53:28;;;;;;;;;;;;;;;23.90;100.00;98778.59;5071653;28;19928;-79
2022/08/19 12:55:56;;;;;;;;;;;;;;;24.23;100.00;98772.09;5071809;28;19928;-79
2022/08/19 12:58:24;;;;;;;;;;;;;;;24.90;100.00;98778.34;5072875;28;19932;-79
2022/08/19 13:00:53;;;;;;;;;;;;;;;25.33;100.00;98771.59;5073048;28;20367;-79